Time;durP1;ratioP1;P1;durP2;ratioP2;P2;SDS_P1;SDS_P2;PMS_P1;PMS_P2;Temp;Humidity;BMP_temperature;BMP_pressure;BME280_temperature;BME280_humidity;BME280_pressure;Samples;Min_cycle;Max_cycle;Signal;HPM_P1;HPM_P2
2023/09/27 00:02:17;;;;;;;9.23;6.30;;;15.90;99.90;;;;;;6271012;23;20401;-85
2023/09/27 00:04:47;;;;;;;0.83;0.83;;;15.90;99.90;;;;;;6231243;23;20421;-85
2023/09/27 00:07:16;;;;;;;5.63;5.17;;;15.90;99.90;;;;;;6227596;23;20405;-85
2023/09/27 00:09:46;;;;;;;3.57;3.23;;;15.90;99.90;;;;;;6228195;23;20468;-86
2023/09/27 00:12:23;;;;;;;2.77;2.57;;;15.80;99.90;;;;;;6228382;23;20733;-85
2023/09/27 00:14:56;;;;;;;10.20;4.77;;;15.90;99.90;;;;;;6255019;23;20849;-84
2023/09/27 00:17:26;;;;;;;3.10;2.90;;;15.80;99.90;;;;;;6252982;23;20467;-85
2023/09/27 00:19:56;;;;;;;3.40;2.97;;;15.80;99.90;;;;;;6254702;23;20424;-85
2023/09/27 00:22:27;;;;;;;4.07;3.73;;;15.80;99.90;;;;;;6254908;23;20392;-85
2023/09/27 00:24:54;;;;;;;3.60;3.40;;;15.70;99.90;;;;;;6256073;23;20685;-81
2023/09/27 00:27:21;;;;;;;6.20;5.90;;;15.80;99.90;;;;;;6258063;23;20404;-85
2023/09/27 00:29:51;;;;;;;3.77;3.57;;;15.80;99.90;;;;;;6257306;23;20433;-85
2023/09/27 00:32:20;;;;;;;4.17;3.80;;;15.90;99.90;;;;;;6233724;23;20393;-82
2023/09/27 00:34:47;;;;;;;2.00;1.90;;;15.90;99.90;;;;;;6231199;23;20447;-84
2023/09/27 00:37:15;;;;;;;3.37;3.13;;;15.80;99.90;;;;;;6254574;23;20389;-86
2023/09/27 00:39:49;;;;;;;3.97;3.67;;;15.80;99.90;;;;;;6230390;23;20406;-85
2023/09/27 00:42:21;;;;;;;4.07;3.60;;;15.80;99.90;;;;;;6228930;23;20811;-83
2023/09/27 00:44:52;;;;;;;4.03;3.70;;;15.80;99.90;;;;;;6231486;22;20389;-84
2023/09/27 00:47:19;;;;;;;3.47;3.27;;;15.70;99.90;;;;;;6247871;22;20453;-83
2023/09/27 00:49:52;;;;;;;5.93;5.33;;;15.70;99.90;;;;;;6274018;22;20428;-85
2023/09/27 00:52:20;;;;;;;3.63;3.40;;;15.70;99.90;;;;;;6273988;22;20369;-82
2023/09/27 00:54:50;;;;;;;8.73;4.50;;;15.70;99.90;;;;;;6272068;22;20476;-85
2023/09/27 00:57:18;;;;;;;2.73;2.63;;;15.60;99.90;;;;;;6207512;23;20400;-85
2023/09/27 00:59:49;;;;;;;4.00;3.70;;;15.60;99.90;;;;;;6255440;23;20779;-85
2023/09/27 01:02:30;;;;;;;3.83;3.53;;;15.60;99.90;;;;;;6230492;23;20447;-85
2023/09/27 01:04:58;;;;;;;3.93;3.73;;;15.70;99.90;;;;;;6254463;23;20456;-84
2023/09/27 01:07:28;;;;;;;5.73;5.43;;;15.70;99.90;;;;;;6227941;23;20383;-84
2023/09/27 01:09:58;;;;;;;2.80;2.70;;;15.80;99.90;;;;;;6254614;23;20437;-84
2023/09/27 01:12:30;;;;;;;4.37;4.13;;;15.80;99.90;;;;;;6229778;23;21118;-82
2023/09/27 01:14:57;;;;;;;5.27;3.47;;;15.80;99.90;;;;;;6253960;23;20416;-85
2023/09/27 01:17:26;;;;;;;1.53;1.43;;;15.80;99.90;;;;;;6254094;23;20413;-83
2023/09/27 01:19:54;;;;;;;3.03;2.83;;;15.70;99.90;;;;;;6255106;23;20385;-85
2023/09/27 01:22:22;;;;;;;6.27;5.70;;;15.60;99.90;;;;;;6228857;23;20414;-85
2023/09/27 01:24:53;;;;;;;4.23;3.93;;;15.70;99.90;;;;;;6229775;23;20427;-87
2023/09/27 01:27:22;;;;;;;4.10;3.90;;;15.70;99.90;;;;;;6230757;23;20467;-86
2023/09/27 01:29:53;;;;;;;3.80;3.60;;;15.70;99.90;;;;;;6227376;23;20444;-82
2023/09/27 01:32:22;;;;;;;2.57;2.47;;;15.60;99.90;;;;;;6254562;23;20393;-86
2023/09/27 01:34:50;;;;;;;3.23;2.90;;;15.60;99.90;;;;;;6253711;23;20412;-85
2023/09/27 01:37:19;;;;;;;5.33;4.37;;;15.70;99.90;;;;;;6226953;23;20393;-84
2023/09/27 01:39:49;;;;;;;9.00;7.20;;;15.60;99.90;;;;;;6228765;23;20391;-83
2023/09/27 01:42:16;;;;;;;4.63;4.40;;;15.50;99.90;;;;;;6252408;23;20418;-80
2023/09/27 01:44:45;;;;;;;2.97;2.87;;;15.50;99.90;;;;;;6253283;23;20420;-85
2023/09/27 01:47:15;;;;;;;6.80;5.20;;;15.60;99.90;;;;;;6252515;23;20428;-82
2023/09/27 01:49:43;;;;;;;4.93;4.17;;;15.50;99.90;;;;;;6252952;23;20455;-84
2023/09/27 01:52:11;;;;;;;4.23;3.93;;;15.70;99.90;;;;;;6251911;23;20389;-81
2023/09/27 01:54:40;;;;;;;5.57;5.10;;;15.50;99.90;;;;;;6253194;23;20423;-84
2023/09/27 01:57:11;;;;;;;9.00;7.37;;;15.50;99.90;;;;;;6253736;23;20401;-84
2023/09/27 01:59:39;;;;;;;11.67;4.80;;;15.30;99.90;;;;;;6227695;23;20378;-85
2023/09/27 02:02:14;;;;;;;6.90;6.13;;;15.40;99.90;;;;;;6227415;23;20409;-84
2023/09/27 02:04:42;;;;;;;6.40;6.00;;;15.40;99.90;;;;;;6224903;23;20447;-83
2023/09/27 02:07:10;;;;;;;4.90;4.13;;;15.50;99.90;;;;;;6225269;23;20395;-83
2023/09/27 02:09:46;;;;;;;2.73;2.63;;;15.50;99.90;;;;;;6251538;23;20447;-80
2023/09/27 02:12:13;;;;;;;4.90;4.53;;;15.60;99.90;;;;;;6251707;23;20397;-83
2023/09/27 02:14:40;;;;;;;7.93;5.97;;;15.60;99.90;;;;;;6225361;23;20499;-83
2023/09/27 02:17:07;;;;;;;4.03;3.73;;;15.80;99.90;;;;;;6251996;23;20758;-87
2023/09/27 02:19:35;;;;;;;3.97;3.67;;;15.60;99.90;;;;;;6226890;23;20454;-86
2023/09/27 02:22:02;;;;;;;4.60;4.40;;;15.60;99.90;;;;;;6253537;23;20791;-83
2023/09/27 02:24:32;;;;;;;6.20;5.80;;;15.60;99.90;;;;;;6254770;23;20396;-86
2023/09/27 02:27:00;;;;;;;15.13;4.50;;;15.70;99.90;;;;;;6224997;23;20401;-84
2023/09/27 02:29:41;;;;;;;4.33;4.03;;;15.50;99.90;;;;;;6226906;23;20523;-87
2023/09/27 02:32:24;;;;;;;1.70;1.70;;;15.50;99.90;;;;;;6253566;23;20397;-83
2023/09/27 02:34:51;;;;;;;4.30;4.10;;;15.50;99.90;;;;;;6252760;23;20388;-83
2023/09/27 02:37:20;;;;;;;2.73;2.50;;;15.30;99.90;;;;;;6253840;23;20408;-83
2023/09/27 02:39:48;;;;;;;5.47;5.13;;;15.40;99.90;;;;;;6261134;22;20433;-82
2023/09/27 02:42:15;;;;;;;5.80;5.37;;;15.30;99.90;;;;;;6253544;23;20401;-83
2023/09/27 02:44:44;;;;;;;2.93;2.80;;;15.30;99.90;;;;;;6252614;23;20605;-82
2023/09/27 02:47:13;;;;;;;4.73;4.33;;;15.30;99.90;;;;;;6227797;23;20412;-84
2023/09/27 02:49:41;;;;;;;3.00;2.83;;;15.50;99.90;;;;;;6225560;23;20467;-81
2023/09/27 02:52:09;;;;;;;9.20;3.83;;;15.30;99.90;;;;;;6251332;23;20481;-84
2023/09/27 02:54:37;;;;;;;3.13;2.93;;;15.20;99.90;;;;;;6253624;23;20408;-84
2023/09/27 02:57:04;;;;;;;5.70;5.30;;;15.30;99.90;;;;;;6251186;23;20426;-80
2023/09/27 02:59:33;;;;;;;6.13;3.70;;;15.20;99.90;;;;;;6251315;23;20408;-84
2023/09/27 03:02:04;;;;;;;4.57;4.27;;;15.20;99.90;;;;;;6225626;23;20802;-84
2023/09/27 03:04:32;;;;;;;7.50;7.00;;;15.30;99.90;;;;;;6225606;23;20450;-86
2023/09/27 03:07:14;;;;;;;5.03;4.67;;;15.20;99.90;;;;;;6252489;23;20416;-90
2023/09/27 03:09:41;;;;;;;6.50;5.93;;;15.20;99.90;;;;;;6251718;23;20456;-83
2023/09/27 03:12:08;;;;;;;6.53;6.03;;;15.20;99.90;;;;;;6252127;23;20455;-83
2023/09/27 03:14:35;;;;;;;5.00;4.63;;;15.20;99.90;;;;;;6252254;23;20404;-81
2023/09/27 03:17:03;;;;;;;7.57;6.37;;;15.30;99.90;;;;;;6252698;23;20393;-84
2023/09/27 03:19:35;;;;;;;5.60;4.63;;;15.10;99.90;;;;;;6253562;23;20409;-86
2023/09/27 03:22:03;;;;;;;4.70;4.40;;;15.20;99.90;;;;;;6266265;22;20409;-86
2023/09/27 03:24:34;;;;;;;2.50;2.40;;;15.30;99.90;;;;;;6245525;22;20373;-81
2023/09/27 03:27:04;;;;;;;6.37;5.80;;;15.20;99.90;;;;;;6264694;22;20394;-83
2023/09/27 03:29:35;;;;;;;3.13;2.93;;;15.20;99.90;;;;;;6266487;22;20488;-89
2023/09/27 03:32:08;;;;;;;3.33;3.13;;;15.10;99.90;;;;;;6228311;23;20383;-85
2023/09/27 03:34:40;;;;;;;8.37;4.07;;;15.10;99.90;;;;;;6227469;23;20404;-83
2023/09/27 03:37:08;;;;;;;4.70;4.37;;;15.10;99.90;;;;;;6225662;23;20436;-82
2023/09/27 03:39:37;;;;;;;6.00;4.63;;;15.00;99.90;;;;;;6226322;23;20475;-81
2023/09/27 03:42:04;;;;;;;3.40;3.20;;;14.90;99.90;;;;;;6252056;23;20389;-85
2023/09/27 03:44:48;;;;;;;5.63;5.13;;;14.80;99.90;;;;;;6226893;23;20374;-86
2023/09/27 03:47:18;;;;;;;4.23;3.83;;;14.90;99.90;;;;;;6253033;23;20436;-88
2023/09/27 03:49:47;;;;;;;5.37;5.07;;;14.90;99.90;;;;;;6227161;23;21008;-83
2023/09/27 03:52:14;;;;;;;8.43;4.13;;;14.90;99.90;;;;;;6254581;23;20393;-87
2023/09/27 03:54:45;;;;;;;3.83;3.50;;;14.70;99.90;;;;;;6255610;23;20408;-86
2023/09/27 03:57:14;;;;;;;6.23;4.57;;;14.90;99.90;;;;;;6230822;23;21092;-81
2023/09/27 03:59:41;;;;;;;7.60;6.97;;;14.80;99.90;;;;;;6254540;23;20389;-85
2023/09/27 04:02:10;;;;;;;11.30;6.30;;;14.90;99.90;;;;;;6231423;23;20401;-88
2023/09/27 04:04:39;;;;;;;5.27;4.77;;;14.90;99.90;;;;;;6232209;23;20381;-83
2023/09/27 04:07:09;;;;;;;6.13;5.50;;;14.80;99.90;;;;;;6231810;23;20411;-85
2023/09/27 04:09:39;;;;;;;2.00;1.80;;;14.90;99.90;;;;;;6254421;23;20473;-86
2023/09/27 04:12:06;;;;;;;3.47;3.27;;;14.60;99.90;;;;;;6254340;23;20431;-87
2023/09/27 04:14:34;;;;;;;4.10;3.90;;;14.70;99.90;;;;;;6256059;23;20412;-90
2023/09/27 04:17:08;;;;;;;5.23;4.23;;;14.70;99.90;;;;;;6241832;22;20495;-85
2023/09/27 04:19:55;;;;;;;4.80;4.40;;;14.70;99.90;;;;;;6243966;22;20400;-88
2023/09/27 04:22:23;;;;;;;3.47;3.17;;;14.60;99.90;;;;;;6267268;22;20415;-85
2023/09/27 04:24:58;;;;;;;3.23;2.97;;;14.50;99.90;;;;;;6254088;23;20400;-82
2023/09/27 04:27:25;;;;;;;4.00;3.80;;;14.40;99.90;;;;;;6256665;23;20395;-86
2023/09/27 04:29:53;;;;;;;3.60;3.40;;;14.40;99.90;;;;;;6233827;23;20500;-86
2023/09/27 04:32:25;;;;;;;4.57;4.23;;;14.40;99.90;;;;;;6233872;23;20396;-86
2023/09/27 04:34:54;;;;;;;3.83;3.53;;;14.40;99.90;;;;;;6258093;23;20417;-85
2023/09/27 04:37:23;;;;;;;3.33;2.83;;;14.40;99.90;;;;;;6264362;23;20435;-86
2023/09/27 04:39:54;;;;;;;3.83;3.63;;;14.40;99.90;;;;;;6265590;23;20397;-85
2023/09/27 04:42:24;;;;;;;1.90;1.80;;;14.40;99.90;;;;;;6268372;22;20396;-85
2023/09/27 04:44:52;;;;;;;10.73;5.93;;;14.30;99.90;;;;;;6243197;22;20397;-86
2023/09/27 04:47:20;;;;;;;5.37;4.97;;;14.30;99.90;;;;;;6234816;23;20400;-83
2023/09/27 04:49:47;;;;;;;1.47;1.47;;;14.30;99.90;;;;;;6254912;23;20994;-85
2023/09/27 04:52:15;;;;;;;10.10;5.50;;;14.30;99.90;;;;;;6237357;22;20431;-85
2023/09/27 04:54:45;;;;;;;3.77;3.57;;;14.30;99.90;;;;;;6266767;22;20449;-84
2023/09/27 04:57:21;;;;;;;3.67;2.63;;;14.50;99.90;;;;;;6274105;22;20377;-88
2023/09/27 04:59:53;;;;;;;3.97;3.63;;;14.30;99.90;;;;;;6269768;22;20435;-90
2023/09/27 05:02:24;;;;;;;9.53;3.50;;;14.40;99.90;;;;;;6228906;23;20472;-88
2023/09/27 05:04:53;;;;;;;2.97;2.60;;;14.40;99.90;;;;;;6251757;23;20388;-83
2023/09/27 05:07:20;;;;;;;2.35;2.25;;;14.50;99.90;;;;;;6227631;23;20416;-83
2023/09/27 05:09:48;;;;;;;3.33;3.13;;;14.40;99.90;;;;;;6253289;23;20215;-84
2023/09/27 05:12:15;;;;;;;7.27;6.67;;;14.40;99.90;;;;;;6225569;23;20401;-81
2023/09/27 05:14:42;;;;;;;4.50;4.20;;;14.40;99.90;;;;;;6251293;23;20476;-83
2023/09/27 05:17:09;;;;;;;3.80;3.50;;;14.40;99.90;;;;;;6251305;23;20408;-83
2023/09/27 05:19:37;;;;;;;2.87;2.70;;;14.50;99.90;;;;;;6251094;23;20397;-81
2023/09/27 05:22:04;;;;;;;8.30;5.30;;;14.60;99.90;;;;;;6253367;23;20420;-86
2023/09/27 05:24:38;;;;;;;1.27;1.27;;;14.80;99.90;;;;;;6252193;23;20573;-82
2023/09/27 05:27:07;;;;;;;4.50;4.20;;;14.80;99.90;;;;;;6253668;23;20584;-86
2023/09/27 05:29:41;;;;;;;6.27;5.80;;;14.80;99.90;;;;;;6254333;23;20385;-83
2023/09/27 05:32:09;;;;;;;5.17;4.77;;;14.90;99.90;;;;;;6256813;23;20411;-81
2023/09/27 05:34:36;;;;;;;2.70;2.60;;;15.10;99.90;;;;;;6226740;23;20496;-82
2023/09/27 05:37:06;;;;;;;2.80;2.70;;;15.10;99.90;;;;;;6255933;23;20559;-85
2023/09/27 05:39:36;;;;;;;7.57;5.50;;;15.10;99.90;;;;;;6259846;23;20368;-84
2023/09/27 05:42:04;;;;;;;6.00;2.10;;;15.30;99.90;;;;;;6253793;23;20399;-86
2023/09/27 05:44:36;;;;;;;3.90;3.60;;;15.50;99.90;;;;;;6226848;23;20412;-86
2023/09/27 05:47:04;;;;;;;3.80;3.60;;;15.80;99.90;;;;;;6226912;23;20449;-81
2023/09/27 05:49:31;;;;;;;1.80;1.70;;;16.10;99.90;;;;;;6253431;23;20432;-82
2023/09/27 05:51:59;;;;;;;3.03;2.87;;;16.20;99.90;;;;;;6254147;23;20753;-83
2023/09/27 05:54:27;;;;;;;2.70;2.50;;;16.20;99.90;;;;;;6256295;23;20425;-85
2023/09/27 05:56:55;;;;;;;1.80;1.70;;;16.40;99.90;;;;;;6265334;22;20396;-84
2023/09/27 05:59:24;;;;;;;2.00;1.90;;;16.50;99.90;;;;;;6268362;22;20455;-83
2023/09/27 06:01:51;;;;;;;5.50;5.20;;;16.80;99.90;;;;;;6227328;23;20368;-86
2023/09/27 06:04:21;;;;;;;3.20;3.00;;;17.10;99.90;;;;;;6253825;23;20389;-85
2023/09/27 06:07:04;;;;;;;3.50;3.30;;;17.60;99.90;;;;;;6254813;23;20408;-88
2023/09/27 06:09:32;;;;;;;1.83;1.73;;;17.90;99.90;;;;;;6231779;23;20380;-86
2023/09/27 06:12:11;;;;;;;3.90;3.10;;;18.10;99.90;;;;;;6256017;23;20397;-88
2023/09/27 06:14:38;;;;;;;1.27;1.17;;;18.10;99.90;;;;;;6255608;23;20613;-87
2023/09/27 06:17:08;;;;;;;2.00;1.90;;;17.90;99.90;;;;;;6231112;23;20421;-86
2023/09/27 06:19:37;;;;;;;2.20;2.10;;;17.90;99.90;;;;;;6229725;23;20445;-85
2023/09/27 06:22:04;;;;;;;2.40;2.30;;;18.20;99.90;;;;;;6255176;23;20393;-88
2023/09/27 06:24:32;;;;;;;2.40;2.30;;;18.40;99.90;;;;;;6257484;23;20418;-86
2023/09/27 06:26:59;;;;;;;1.40;1.40;;;18.50;99.90;;;;;;6232899;23;20394;-87
2023/09/27 06:29:27;;;;;;;4.00;3.73;;;18.40;99.90;;;;;;6261163;23;20417;-87
2023/09/27 06:31:55;;;;;;;5.13;4.73;;;18.60;99.90;;;;;;6240923;23;20479;-86
2023/09/27 06:34:22;;;;;;;1.83;1.27;;;18.50;99.90;;;;;;6257233;23;20678;-89
2023/09/27 06:36:51;;;;;;;1.60;1.50;;;18.60;99.90;;;;;;6258873;23;20383;-86
2023/09/27 06:39:21;;;;;;;2.73;2.63;;;18.70;99.90;;;;;;6228980;23;20574;-82
2023/09/27 06:41:49;;;;;;;2.53;2.33;;;19.40;99.90;;;;;;6255079;23;20479;-85
2023/09/27 06:44:18;;;;;;;3.80;3.57;;;19.80;99.90;;;;;;6255278;23;20382;-85
2023/09/27 06:46:47;;;;;;;3.70;3.40;;;20.20;99.90;;;;;;6256019;23;20360;-85
2023/09/27 06:49:18;;;;;;;2.70;2.50;;;20.20;99.90;;;;;;6255453;23;20344;-86
2023/09/27 06:51:45;;;;;;;1.47;1.47;;;19.90;99.90;;;;;;6228880;23;20467;-79
2023/09/27 06:54:12;;;;;;;4.77;4.53;;;20.30;99.90;;;;;;6253910;23;20384;-85
2023/09/27 06:56:40;;;;;;;1.63;1.53;;;21.30;99.90;;;;;;6227360;23;20413;-86
2023/09/27 06:59:07;;;;;;;2.07;1.97;;;21.90;99.90;;;;;;6253533;23;20421;-87
2023/09/27 07:01:35;;;;;;;2.50;2.30;;;21.80;99.90;;;;;;6255897;23;20398;-87
2023/09/27 07:04:05;;;;;;;2.13;2.00;;;21.70;99.90;;;;;;6256821;23;20420;-87
2023/09/27 07:06:33;;;;;;;1.50;1.40;;;21.50;99.90;;;;;;6256324;23;20389;-86
2023/09/27 07:09:00;;;;;;;3.43;3.13;;;21.10;99.90;;;;;;6226136;23;20431;-86
2023/09/27 07:11:28;;;;;;;2.60;2.50;;;21.40;99.90;;;;;;6227203;23;20563;-85
2023/09/27 07:13:55;;;;;;;10.30;3.00;;;21.30;99.90;;;;;;6252840;23;20396;-84
2023/09/27 07:16:26;;;;;;;2.70;2.50;;;21.20;99.90;;;;;;6225962;23;20435;-84
2023/09/27 07:18:59;;;;;;;2.27;2.13;;;21.40;99.90;;;;;;6256475;23;20579;-88
2023/09/27 07:21:29;;;;;;;2.70;1.70;;;22.00;99.90;;;;;;6228825;23;20394;-87
2023/09/27 07:23:57;;;;;;;2.90;2.70;;;22.50;99.90;;;;;;6240393;22;20456;-81
2023/09/27 07:26:23;;;;;;;1.97;1.43;;;23.20;99.90;;;;;;6258515;22;20437;-85
2023/09/27 07:28:53;;;;;;;2.50;2.40;;;23.70;99.90;;;;;;6231736;23;20453;-85
2023/09/27 07:31:21;;;;;;;2.20;2.10;;;24.30;99.90;;;;;;6256433;23;20461;-83
2023/09/27 07:33:50;;;;;;;3.23;3.03;;;24.90;99.90;;;;;;6260282;23;20432;-87
2023/09/27 07:36:20;;;;;;;1.40;1.40;;;25.10;99.90;;;;;;6256237;22;20409;-90
2023/09/27 07:38:47;;;;;;;2.13;2.03;;;25.10;99.90;;;;;;6261869;22;20455;-83
2023/09/27 07:41:17;;;;;;;1.77;1.67;;;24.40;99.90;;;;;;6256173;23;20454;-83
2023/09/27 07:43:44;;;;;;;1.87;1.77;;;24.20;99.90;;;;;;6257927;23;20439;-88
2023/09/27 07:46:12;;;;;;;1.77;1.63;;;24.60;99.90;;;;;;6256723;23;20748;-85
2023/09/27 07:48:41;;;;;;;3.50;3.17;;;24.80;99.90;;;;;;6230359;23;20390;-83
2023/09/27 07:51:12;;;;;;;2.40;2.30;;;24.80;99.90;;;;;;6255072;23;20450;-85
2023/09/27 07:56:27;;;;;;;1.13;1.13;;;25.00;99.90;;;;;;6170763;23;20379;-83
2023/09/27 07:58:54;;;;;;;2.13;2.03;;;24.60;99.90;;;;;;6177674;23;20427;-86
2023/09/27 08:01:23;;;;;;;1.30;1.27;;;24.80;99.90;;;;;;6177920;23;20407;-83
2023/09/27 08:04:06;;;;;;;2.63;2.53;;;25.40;99.90;;;;;;6180215;23;20407;-86
2023/09/27 08:06:38;;;;;;;4.70;4.13;;;26.00;99.90;;;;;;6171146;23;20442;-82
2023/09/27 08:09:06;;;;;;;2.00;1.87;;;26.20;99.90;;;;;;6170585;23;20439;-82
2023/09/27 08:11:34;;;;;;;2.97;2.77;;;26.20;99.90;;;;;;6146759;23;20624;-86
2023/09/27 08:14:02;;;;;;;2.53;2.43;;;25.60;99.90;;;;;;6170949;23;20411;-85
2023/09/27 08:16:29;;;;;;;2.00;1.90;;;25.70;99.90;;;;;;6144473;23;20464;-85
2023/09/27 08:18:56;;;;;;;5.67;3.37;;;26.20;99.90;;;;;;6166684;23;20428;-83
2023/09/27 08:21:23;;;;;;;2.23;2.13;;;26.70;99.90;;;;;;6164425;23;20969;-82
2023/09/27 08:23:52;;;;;;;3.90;3.60;;;27.20;99.90;;;;;;6165699;23;20417;-87
2023/09/27 08:26:20;;;;;;;1.57;1.50;;;27.10;99.90;;;;;;6164549;23;20477;-84
2023/09/27 08:28:47;;;;;;;1.77;1.67;;;27.60;99.90;;;;;;6165491;23;20731;-85
2023/09/27 08:31:15;;;;;;;2.17;2.07;;;27.90;99.90;;;;;;6140882;23;20461;-85
2023/09/27 08:33:47;;;;;;;1.27;1.27;;;28.10;99.90;;;;;;6166771;23;20419;-88
2023/09/27 08:36:13;;;;;;;2.30;2.20;;;28.20;99.90;;;;;;6166715;23;20618;-81
2023/09/27 08:38:41;;;;;;;3.73;1.80;;;28.30;99.90;;;;;;6179972;23;20420;-86
2023/09/27 08:41:09;;;;;;;2.07;1.97;;;28.40;99.90;;;;;;6259866;22;20445;-83
2023/09/27 08:43:37;;;;;;;1.00;1.00;;;28.40;99.90;;;;;;6258744;22;20465;-86
2023/09/27 08:46:07;;;;;;;1.23;1.23;;;28.40;99.90;;;;;;6266688;22;20402;-88
2023/09/27 08:48:36;;;;;;;2.40;2.23;;;28.60;99.90;;;;;;6235978;23;20391;-81
2023/09/27 08:51:04;;;;;;;1.57;1.53;;;28.70;99.90;;;;;;6258401;23;20438;-85
2023/09/27 08:53:33;;;;;;;2.23;2.13;;;28.60;99.90;;;;;;6228418;23;20859;-91
2023/09/27 08:56:06;;;;;;;1.67;1.57;;;28.90;99.90;;;;;;6257999;23;20393;-85
2023/09/27 08:58:38;;;;;;;1.90;1.80;;;29.00;99.90;;;;;;6258007;23;20407;-86
2023/09/27 09:01:07;;;;;;;2.07;1.97;;;28.90;99.90;;;;;;6234011;23;20387;-84
2023/09/27 09:03:37;;;;;;;1.10;1.10;;;28.60;99.90;;;;;;6236045;23;20500;-84
2023/09/27 09:06:15;;;;;;;1.10;1.10;;;29.00;99.90;;;;;;6233126;23;20399;-90
2023/09/27 09:08:43;;;;;;;2.30;2.20;;;28.90;99.80;;;;;;6255188;23;20381;-85
2023/09/27 09:11:12;;;;;;;2.50;2.27;;;28.90;99.90;;;;;;6257574;23;20437;-90
2023/09/27 09:14:05;;;;;;;2.23;2.13;;;29.40;99.90;;;;;;6229187;23;20625;-82
2023/09/27 09:16:39;;;;;;;1.20;1.20;;;29.10;96.20;;;;;;6232528;23;20385;-85
2023/09/27 09:19:22;;;;;;;1.47;1.37;;;28.80;98.90;;;;;;6260674;23;20384;-83
2023/09/27 09:22:12;;;;;;;1.60;1.50;;;28.50;98.20;;;;;;6237357;23;20378;-85
2023/09/27 09:24:43;;;;;;;1.10;1.10;;;28.00;98.80;;;;;;6238277;22;20401;-87
2023/09/27 09:29:57;;;;;;;1.43;1.33;;;27.50;99.30;;;;;;6252275;22;20441;-87
2023/09/27 09:32:26;;;;;;;1.63;1.53;;;27.50;99.40;;;;;;6260735;23;20430;-83
2023/09/27 09:34:55;;;;;;;2.13;2.03;;;27.00;99.10;;;;;;6261007;22;20448;-87
2023/09/27 09:37:26;;;;;;;9.03;3.73;;;26.60;99.90;;;;;;6261912;23;20385;-86
2023/09/27 09:40:10;;;;;;;1.53;1.43;;;26.50;99.90;;;;;;6239348;23;20413;-88
2023/09/27 09:42:37;;;;;;;2.23;2.13;;;26.70;99.90;;;;;;6259867;23;20350;-83
2023/09/27 09:45:10;;;;;;;2.03;1.93;;;26.40;99.90;;;;;;6263227;22;20372;-83
2023/09/27 09:47:39;;;;;;;1.97;1.87;;;26.30;99.90;;;;;;6259149;22;20454;-85
2023/09/27 09:50:08;;;;;;;3.10;2.87;;;26.20;99.90;;;;;;6263914;22;20405;-82
2023/09/27 09:52:39;;;;;;;2.10;2.00;;;26.30;99.90;;;;;;6255720;23;20424;-85
2023/09/27 09:55:08;;;;;;;1.97;1.87;;;26.30;99.90;;;;;;6259613;23;20386;-87
2023/09/27 09:57:59;;;;;;;1.63;1.53;;;26.30;99.90;;;;;;6261129;22;20381;-87
2023/09/27 10:00:27;;;;;;;1.37;1.27;;;26.30;99.90;;;;;;6259813;22;20387;-82
2023/09/27 10:03:07;;;;;;;1.83;1.70;;;26.40;99.90;;;;;;6258140;23;20722;-84
2023/09/27 10:05:39;;;;;;;1.87;1.73;;;26.60;99.90;;;;;;6233112;23;20397;-83
2023/09/27 10:08:07;;;;;;;1.13;1.13;;;26.50;99.90;;;;;;6260026;22;20389;-81
2023/09/27 10:10:38;;;;;;;2.40;2.30;;;26.50;99.90;;;;;;6257475;23;20371;-87
2023/09/27 10:13:09;;;;;;;3.30;3.00;;;26.30;99.90;;;;;;6257898;23;20352;-88
2023/09/27 10:15:40;;;;;;;2.03;1.53;;;26.40;99.90;;;;;;6260962;22;20368;-85
2023/09/27 10:18:22;;;;;;;1.10;1.10;;;26.50;99.50;;;;;;6263196;22;20617;-83
2023/09/27 10:21:09;;;;;;;3.00;2.80;;;26.50;96.40;;;;;;6232466;23;20448;-80
2023/09/27 10:23:45;;;;;;;0.90;0.90;;;26.40;96.30;;;;;;6235238;23;20352;-83
2023/09/27 10:26:22;;;;;;;0.97;0.97;;;26.30;96.30;;;;;;6258276;22;20719;-86
2023/09/27 10:29:35;;;;;;;1.37;1.37;;;26.40;97.20;;;;;;6230931;23;20439;-88
2023/09/27 10:34:29;;;;;;;1.73;1.63;;;26.60;97.50;;;;;;6285060;22;20389;-84
2023/09/27 10:37:02;;;;;;;1.10;1.10;;;26.70;96.90;;;;;;6258802;22;20382;-87
2023/09/27 10:40:19;;;;;;;1.70;1.60;;;26.70;96.50;;;;;;6263330;22;20359;-84
2023/09/27 10:42:47;;;;;;;2.50;2.40;;;26.70;95.50;;;;;;6289386;22;20396;-84
2023/09/27 10:45:15;;;;;;;1.23;1.23;;;26.90;95.30;;;;;;6289471;22;20386;-85
2023/09/27 10:47:42;;;;;;;1.50;1.40;;;26.80;94.80;;;;;;6293585;22;20363;-85
2023/09/27 10:50:10;;;;;;;1.30;1.30;;;26.50;94.70;;;;;;6267802;22;20374;-81
2023/09/27 10:52:44;;;;;;;1.83;1.73;;;26.30;94.60;;;;;;6289808;22;20419;-84
2023/09/27 10:55:12;;;;;;;1.10;1.10;;;26.40;93.60;;;;;;6288654;22;20383;-87
2023/09/27 10:57:41;;;;;;;2.03;1.93;;;26.50;92.40;;;;;;6238179;22;20588;-85
2023/09/27 11:00:14;;;;;;;1.10;1.10;;;26.50;92.30;;;;;;6225589;23;20394;-84
2023/09/27 11:02:42;;;;;;;1.63;1.53;;;26.60;93.50;;;;;;6223055;23;20376;-82
2023/09/27 11:05:09;;;;;;;3.90;3.60;;;26.70;93.10;;;;;;6226797;22;20511;-88
2023/09/27 11:07:48;;;;;;;1.30;1.30;;;26.80;92.40;;;;;;6226958;23;20471;-86
2023/09/27 11:10:37;;;;;;;0.70;0.70;;;26.90;92.60;;;;;;6229515;23;20401;-87
2023/09/27 11:13:12;;;;;;;0.90;0.90;;;27.00;91.80;;;;;;6226244;23;20598;-88
2023/09/27 11:15:40;;;;;;;1.87;1.77;;;26.90;92.00;;;;;;6203172;23;20422;-89
2023/09/27 11:18:13;;;;;;;1.07;1.07;;;26.90;91.60;;;;;;6225810;23;20671;-83
2023/09/27 11:20:44;;;;;;;1.30;1.30;;;26.60;91.40;;;;;;6231234;23;20378;-84
2023/09/27 11:23:23;;;;;;;1.27;1.23;;;26.70;92.20;;;;;;6198624;23;20399;-81
2023/09/27 11:25:51;;;;;;;0.90;0.90;;;26.80;91.10;;;;;;6225489;23;20401;-82
2023/09/27 11:28:19;;;;;;;1.33;1.33;;;26.80;88.90;;;;;;6225331;23;20417;-84
2023/09/27 11:30:56;;;;;;;1.20;1.20;;;26.90;86.70;;;;;;6225428;23;20396;-85
2023/09/27 11:33:33;;;;;;;3.47;2.10;;;26.90;87.20;;;;;;6225003;23;20382;-86
2023/09/27 11:36:05;;;;;;;1.03;1.03;;;26.90;85.00;;;;;;6199083;23;20393;-86
2023/09/27 11:38:32;;;;;;;3.30;3.13;;;26.70;86.50;;;;;;6201853;23;20771;-84
2023/09/27 11:41:16;;;;;;;1.67;1.57;;;26.70;86.40;;;;;;6226910;23;20479;-87
2023/09/27 11:43:45;;;;;;;1.10;1.10;;;26.70;90.40;;;;;;6226253;23;20435;-88
2023/09/27 11:46:24;;;;;;;2.17;2.03;;;26.70;87.70;;;;;;6230070;23;20401;-84
2023/09/27 11:49:07;;;;;;;1.17;1.17;;;26.70;86.00;;;;;;6229205;23;20495;-82
2023/09/27 11:51:35;;;;;;;1.50;1.40;;;26.70;87.20;;;;;;6228669;23;20404;-79
2023/09/27 11:54:04;;;;;;;1.83;1.70;;;26.90;86.80;;;;;;6200062;23;20436;-84
2023/09/27 11:56:33;;;;;;;1.00;1.00;;;27.00;87.90;;;;;;6227447;23;20462;-83
2023/09/27 11:59:02;;;;;;;1.50;1.40;;;27.20;86.80;;;;;;6230953;23;20411;-83
2023/09/27 12:01:30;;;;;;;2.27;2.17;;;27.20;86.60;;;;;;6224736;23;20401;-86
2023/09/27 12:03:59;;;;;;;2.10;2.00;;;27.20;85.80;;;;;;6228101;23;20414;-87
2023/09/27 12:06:33;;;;;;;8.30;3.40;;;27.10;86.40;;;;;;6228160;23;20612;-87
2023/09/27 12:09:06;;;;;;;1.50;1.40;;;27.00;86.20;;;;;;6226866;23;20386;-84
2023/09/27 12:11:37;;;;;;;0.83;0.83;;;26.90;85.20;;;;;;6229713;23;20728;-86
2023/09/27 12:14:04;;;;;;;1.10;1.10;;;26.80;86.20;;;;;;6230347;23;20416;-84
2023/09/27 12:16:32;;;;;;;1.40;1.40;;;26.90;85.20;;;;;;6234811;22;20408;-84
2023/09/27 12:19:03;;;;;;;3.63;3.33;;;27.00;85.00;;;;;;6205867;22;20364;-85
2023/09/27 12:21:35;;;;;;;0.87;0.87;;;27.20;85.60;;;;;;6204276;23;20381;-81
2023/09/27 12:24:05;;;;;;;1.17;1.17;;;27.20;84.80;;;;;;6232871;23;20679;-85
2023/09/27 12:26:33;;;;;;;2.27;2.17;;;27.20;85.30;;;;;;6231160;23;20464;-81
2023/09/27 12:29:11;;;;;;;1.97;1.87;;;27.00;83.80;;;;;;6234483;23;20402;-84
2023/09/27 12:31:38;;;;;;;1.10;1.10;;;27.00;83.20;;;;;;6236610;23;20432;-84
2023/09/27 12:34:05;;;;;;;1.37;1.37;;;27.00;82.00;;;;;;6235863;23;20379;-85
2023/09/27 12:36:32;;;;;;;1.30;1.30;;;27.10;84.00;;;;;;6232096;23;20384;-83
2023/09/27 12:39:02;;;;;;;8.00;3.50;;;27.00;81.60;;;;;;6234868;22;20464;-84
2023/09/27 12:41:30;;;;;;;2.70;1.77;;;27.10;80.20;;;;;;6228026;23;20434;-84
2023/09/27 12:43:57;;;;;;;2.00;1.33;;;26.90;80.70;;;;;;6232238;23;20456;-80
2023/09/27 12:46:24;;;;;;;1.53;1.43;;;26.80;81.20;;;;;;6228594;22;20580;-87
2023/09/27 12:48:52;;;;;;;1.70;1.60;;;26.90;80.60;;;;;;6223875;23;20405;-87
2023/09/27 12:51:19;;;;;;;1.90;1.77;;;26.70;80.40;;;;;;6226153;23;20448;-90
2023/09/27 12:54:03;;;;;;;0.90;0.90;;;26.70;80.50;;;;;;6231168;22;20365;-81
2023/09/27 12:56:29;;;;;;;1.83;1.73;;;26.70;79.10;;;;;;6234300;22;20383;-86
2023/09/27 12:58:59;;;;;;;1.77;1.67;;;26.60;83.70;;;;;;6237476;22;20470;-88
2023/09/27 13:01:26;;;;;;;0.90;0.90;;;26.70;80.40;;;;;;6230368;23;20517;-80
2023/09/27 13:03:54;;;;;;;1.30;1.30;;;26.60;79.40;;;;;;6225925;23;20368;-83
2023/09/27 13:06:24;;;;;;;1.57;1.47;;;26.70;78.20;;;;;;6225967;23;20705;-87
2023/09/27 13:08:51;;;;;;;3.07;2.87;;;26.60;78.20;;;;;;6224819;23;20394;-84
2023/09/27 13:11:18;;;;;;;4.27;4.00;;;26.60;77.90;;;;;;6225021;23;20388;-81